Terminal Aerodrome Forecast
Issued by NWS

Home | Current Version | Previous Version | Text Only | Print | Product List | Glossary On
Versions: 1 2 3 4 5 6 7 8 9 10 11 12 13 14 15 16 17 18 19 20 21 22 23 24 25 26 27 28 29 30 31 32
000
FTUS43 KGRB 230500
TAFRHI
TAF
KRHI 230520Z 2306/2406 15005KT P6SM SCT070 BKN100
     FM230900 17005KT P6SM SCT025 BKN050
     FM231300 17005KT P6SM VCSH SCT015 OVC025
     FM231700 18004KT 3SM -SHRA BR OVC015
     FM232100 17008KT 5SM -RA BR OVC012
     FM240100 24003KT P6SM OVC009=

USA.gov is the U.S. government's official web portal to all federal, state and local government web resources and services.